York, Nebraska
Current Conditions -  °F | °C
As of 5:55 PM on Sunday 23 Nov 2014 (Local Time) from KJYR Reporting Station
Clear Clear  
Wind Chill: 34°   Ceiling: Unl
Heat Index: 41°   Visibility: 10mi
Dew Point: 32°   Wind: 12mph
Humidity: 70%   Direction: 350°N
Pressure: 29.59"   Gusts: NA
Location:  40.86°N, 97.59°W
Report Text: KJYR 232355Z AUTO 35010KT 10SM CLR 05/00 A2959 RMK AO2
Loading
Personal Weather Stations






























Interactive Weather Map New forecast layout! Learn more

10-Day Weather Forecast

Advertisements
Track Severe Weather on mobile